sensor_id;sensor_type;location;lat;lon;timestamp;pressure;altitude;pressure_sealevel;temperature;humidity
30873;BME280;17579;42.690;2.586;2023-02-11T00:02:23;98964.88;;;6.23;48.32
30873;BME280;17579;42.690;2.586;2023-02-11T00:04:48;98962.34;;;6.21;48.14
30873;BME280;17579;42.690;2.586;2023-02-11T00:07:34;98959.78;;;6.20;47.83
30873;BME280;17579;42.690;2.586;2023-02-11T00:10:00;98964.28;;;6.18;47.99
30873;BME280;17579;42.690;2.586;2023-02-11T00:12:27;98961.78;;;6.15;47.84
30873;BME280;17579;42.690;2.586;2023-02-11T00:14:53;98957.47;;;6.14;47.62
30873;BME280;17579;42.690;2.586;2023-02-11T00:17:19;98957.53;;;6.12;47.84
30873;BME280;17579;42.690;2.586;2023-02-11T00:19:50;98955.03;;;6.09;47.78
30873;BME280;17579;42.690;2.586;2023-02-11T00:22:17;98944.41;;;6.12;47.72
30873;BME280;17579;42.690;2.586;2023-02-11T00:24:45;98954.13;;;6.10;47.75
30873;BME280;17579;42.690;2.586;2023-02-11T00:27:10;98950.66;;;6.10;47.56
30873;BME280;17579;42.690;2.586;2023-02-11T00:29:37;98953.28;;;6.10;47.50
30873;BME280;17579;42.690;2.586;2023-02-11T00:32:03;98951.56;;;6.09;47.65
30873;BME280;17579;42.690;2.586;2023-02-11T00:34:31;98949.88;;;6.07;47.85
30873;BME280;17579;42.690;2.586;2023-02-11T00:36:57;98942.78;;;6.10;47.56
30873;BME280;17579;42.690;2.586;2023-02-11T00:39:23;98948.78;;;6.12;47.63
30873;BME280;17579;42.690;2.586;2023-02-11T00:41:49;98935.75;;;6.10;47.61
30873;BME280;17579;42.690;2.586;2023-02-11T00:44:15;98936.66;;;6.09;47.23
30873;BME280;17579;42.690;2.586;2023-02-11T00:46:40;98939.28;;;6.09;47.42
30873;BME280;17579;42.690;2.586;2023-02-11T00:49:06;98931.47;;;6.07;47.49
30873;BME280;17579;42.690;2.586;2023-02-11T00:51:32;98934.19;;;6.06;47.33
30873;BME280;17579;42.690;2.586;2023-02-11T00:53:57;98932.50;;;6.05;47.46
30873;BME280;17579;42.690;2.586;2023-02-11T00:56:23;98929.00;;;6.04;46.99
30873;BME280;17579;42.690;2.586;2023-02-11T00:58:48;98929.16;;;6.01;47.28
30873;BME280;17579;42.690;2.586;2023-02-11T01:01:14;98924.81;;;6.00;47.17
30873;BME280;17579;42.690;2.586;2023-02-11T01:03:40;98928.47;;;5.98;47.27
30873;BME280;17579;42.690;2.586;2023-02-11T01:06:08;98930.22;;;5.97;47.30
30873;BME280;17579;42.690;2.586;2023-02-11T01:08:34;98928.56;;;5.95;47.41
30873;BME280;17579;42.690;2.586;2023-02-11T01:11:03;98925.94;;;5.95;47.10
30873;BME280;17579;42.690;2.586;2023-02-11T01:13:31;98924.25;;;5.94;47.11
30873;BME280;17579;42.690;2.586;2023-02-11T01:15:57;98921.63;;;5.94;47.13
30873;BME280;17579;42.690;2.586;2023-02-11T01:18:23;98918.06;;;5.95;46.70
30873;BME280;17579;42.690;2.586;2023-02-11T01:20:51;98923.31;;;5.95;46.95
30873;BME280;17579;42.690;2.586;2023-02-11T01:23:18;98915.50;;;5.93;47.07
30873;BME280;17579;42.690;2.586;2023-02-11T01:25:43;98917.22;;;5.94;47.20
30873;BME280;17579;42.690;2.586;2023-02-11T01:28:13;98915.50;;;5.93;47.21
30873;BME280;17579;42.690;2.586;2023-02-11T01:30:40;98913.75;;;5.94;47.02
30873;BME280;17579;42.690;2.586;2023-02-11T01:33:05;98917.22;;;5.94;47.32
30873;BME280;17579;42.690;2.586;2023-02-11T01:35:31;98911.97;;;5.94;47.18
30873;BME280;17579;42.690;2.586;2023-02-11T01:37:57;98913.75;;;5.94;47.16
30873;BME280;17579;42.690;2.586;2023-02-11T01:40:22;98912.13;;;5.91;47.13
30873;BME280;17579;42.690;2.586;2023-02-11T01:42:48;98912.19;;;5.89;47.20
30873;BME280;17579;42.690;2.586;2023-02-11T01:47:41;98909.72;;;5.86;47.04
30873;BME280;17579;42.690;2.586;2023-02-11T01:50:06;98908.84;;;5.86;47.38
30873;BME280;17579;42.690;2.586;2023-02-11T01:52:36;98903.91;;;5.80;47.03
30873;BME280;17579;42.690;2.586;2023-02-11T01:55:06;98913.50;;;5.81;47.03
30873;BME280;17579;42.690;2.586;2023-02-11T01:57:35;98904.97;;;5.76;47.10
30873;BME280;17579;42.690;2.586;2023-02-11T02:00:23;98907.06;;;5.69;47.16
30873;BME280;17579;42.690;2.586;2023-02-11T02:02:55;98893.50;;;5.78;47.00
30873;BME280;17579;42.690;2.586;2023-02-11T02:05:31;98895.34;;;5.76;47.19
30873;BME280;17579;42.690;2.586;2023-02-11T02:10:51;98886.25;;;5.83;46.85
30873;BME280;17579;42.690;2.586;2023-02-11T02:13:22;98882.59;;;5.86;46.85
30873;BME280;17579;42.690;2.586;2023-02-11T02:15:53;98876.66;;;5.82;47.25
30873;BME280;17579;42.690;2.586;2023-02-11T02:31:43;98867.63;;;5.88;47.07
30873;BME280;17579;42.690;2.586;2023-02-11T02:34:23;98858.13;;;5.85;46.85
30873;BME280;17579;42.690;2.586;2023-02-11T02:37:18;98860.19;;;5.79;46.96
30873;BME280;17579;42.690;2.586;2023-02-11T02:39:47;98864.13;;;5.87;46.57
30873;BME280;17579;42.690;2.586;2023-02-11T02:42:15;98854.59;;;5.86;46.27
30873;BME280;17579;42.690;2.586;2023-02-11T02:44:47;98854.75;;;5.83;46.88
30873;BME280;17579;42.690;2.586;2023-02-11T02:47:13;98851.00;;;5.87;46.49
30873;BME280;17579;42.690;2.586;2023-02-11T02:49:41;98854.50;;;5.88;46.67
30873;BME280;17579;42.690;2.586;2023-02-11T02:55:11;98856.22;;;5.89;46.53
30873;BME280;17579;42.690;2.586;2023-02-11T03:00:40;98856.34;;;5.86;46.51
30873;BME280;17579;42.690;2.586;2023-02-11T03:03:20;98848.53;;;5.84;46.46
30873;BME280;17579;42.690;2.586;2023-02-11T03:05:54;98845.00;;;5.85;46.58
30873;BME280;17579;42.690;2.586;2023-02-11T03:08:36;98845.22;;;5.81;46.79
30873;BME280;17579;42.690;2.586;2023-02-11T03:11:04;98844.84;;;5.88;46.66
30873;BME280;17579;42.690;2.586;2023-02-11T03:13:34;98844.84;;;5.88;46.52
30873;BME280;17579;42.690;2.586;2023-02-11T03:16:06;98844.09;;;5.86;46.63
30873;BME280;17579;42.690;2.586;2023-02-11T03:18:34;98832.63;;;5.87;46.61
30873;BME280;17579;42.690;2.586;2023-02-11T03:21:01;98832.72;;;5.86;46.98
30873;BME280;17579;42.690;2.586;2023-02-11T03:23:35;98832.09;;;5.81;46.53
30873;BME280;17579;42.690;2.586;2023-02-11T03:26:11;98833.03;;;5.80;46.73
30873;BME280;17579;42.690;2.586;2023-02-11T03:28:47;98826.94;;;5.79;46.59
30873;BME280;17579;42.690;2.586;2023-02-11T03:31:20;98821.75;;;5.78;46.15
30873;BME280;17579;42.690;2.586;2023-02-11T03:34:05;98825.53;;;5.72;46.65
30873;BME280;17579;42.690;2.586;2023-02-11T03:36:50;98820.13;;;5.75;46.67
30873;BME280;17579;42.690;2.586;2023-02-11T03:39:23;98816.78;;;5.71;46.87
30873;BME280;17579;42.690;2.586;2023-02-11T03:41:50;98826.53;;;5.69;46.85
30873;BME280;17579;42.690;2.586;2023-02-11T03:44:20;98825.69;;;5.69;47.22
30873;BME280;17579;42.690;2.586;2023-02-11T03:46:49;98821.44;;;5.66;47.52
30873;BME280;17579;42.690;2.586;2023-02-11T03:49:18;98829.38;;;5.65;47.50
30873;BME280;17579;42.690;2.586;2023-02-11T03:51:47;98824.13;;;5.65;47.53
30873;BME280;17579;42.690;2.586;2023-02-11T03:54:17;98822.44;;;5.64;47.28
30873;BME280;17579;42.690;2.586;2023-02-11T03:56:51;98823.44;;;5.61;47.46
30873;BME280;17579;42.690;2.586;2023-02-11T03:59:17;98826.75;;;5.65;47.48
30873;BME280;17579;42.690;2.586;2023-02-11T04:01:43;98829.47;;;5.63;47.33
30873;BME280;17579;42.690;2.586;2023-02-11T04:04:09;98824.28;;;5.62;47.10
30873;BME280;17579;42.690;2.586;2023-02-11T04:06:34;98819.16;;;5.59;47.24
30873;BME280;17579;42.690;2.586;2023-02-11T04:09:00;98818.31;;;5.58;47.24
30873;BME280;17579;42.690;2.586;2023-02-11T04:11:26;98823.59;;;5.58;47.18
30873;BME280;17579;42.690;2.586;2023-02-11T04:13:52;98821.88;;;5.57;46.80
30873;BME280;17579;42.690;2.586;2023-02-11T04:16:17;98822.94;;;5.53;46.74
30873;BME280;17579;42.690;2.586;2023-02-11T04:18:43;98821.25;;;5.52;47.10
30873;BME280;17579;42.690;2.586;2023-02-11T04:21:08;98816.94;;;5.51;46.88
30873;BME280;17579;42.690;2.586;2023-02-11T04:23:34;98818.63;;;5.52;46.70
30873;BME280;17579;42.690;2.586;2023-02-11T04:26:00;98817.00;;;5.49;46.67
30873;BME280;17579;42.690;2.586;2023-02-11T04:28:25;98811.84;;;5.48;46.58
30873;BME280;17579;42.690;2.586;2023-02-11T04:30:54;98822.41;;;5.46;46.88
30873;BME280;17579;42.690;2.586;2023-02-11T04:33:19;98825.03;;;5.46;47.20
30873;BME280;17579;42.690;2.586;2023-02-11T04:35:45;98823.25;;;5.47;46.90
30873;BME280;17579;42.690;2.586;2023-02-11T04:38:11;98816.38;;;5.44;46.79
30873;BME280;17579;42.690;2.586;2023-02-11T04:40:37;98824.25;;;5.44;46.97
30873;BME280;17579;42.690;2.586;2023-02-11T04:43:04;98815.53;;;5.44;46.55
30873;BME280;17579;42.690;2.586;2023-02-11T04:45:30;98821.69;;;5.43;46.57
30873;BME280;17579;42.690;2.586;2023-02-11T04:47:56;98815.53;;;5.44;46.76
30873;BME280;17579;42.690;2.586;2023-02-11T04:50:21;98810.28;;;5.44;46.47
30873;BME280;17579;42.690;2.586;2023-02-11T04:52:47;98810.28;;;5.44;46.75
30873;BME280;17579;42.690;2.586;2023-02-11T04:55:15;98813.75;;;5.44;46.67
30873;BME280;17579;42.690;2.586;2023-02-11T04:57:41;98819.88;;;5.45;46.91
30873;BME280;17579;42.690;2.586;2023-02-11T05:00:07;98823.41;;;5.44;47.04
30873;BME280;17579;42.690;2.586;2023-02-11T05:02:34;98820.84;;;5.42;46.80
30873;BME280;17579;42.690;2.586;2023-02-11T05:05:00;98826.19;;;5.41;46.80
30873;BME280;17579;42.690;2.586;2023-02-11T05:07:26;98827.94;;;5.40;46.25
30873;BME280;17579;42.690;2.586;2023-02-11T05:09:53;98829.78;;;5.38;46.21
30873;BME280;17579;42.690;2.586;2023-02-11T05:12:19;98831.78;;;5.33;46.58
30873;BME280;17579;42.690;2.586;2023-02-11T05:14:46;98833.78;;;5.28;46.52
30873;BME280;17579;42.690;2.586;2023-02-11T05:17:11;98829.81;;;5.19;46.60
30873;BME280;17579;42.690;2.586;2023-02-11T05:19:37;98834.28;;;5.17;47.09
30873;BME280;17579;42.690;2.586;2023-02-11T05:22:03;98830.66;;;5.19;47.15
30873;BME280;17579;42.690;2.586;2023-02-11T05:24:30;98831.59;;;5.18;47.01
30873;BME280;17579;42.690;2.586;2023-02-11T05:26:56;98829.09;;;5.15;46.96
30873;BME280;17579;42.690;2.586;2023-02-11T05:29:21;98825.78;;;5.12;46.78
30873;BME280;17579;42.690;2.586;2023-02-11T05:31:47;98831.94;;;5.11;47.32
30873;BME280;17579;42.690;2.586;2023-02-11T05:34:13;98826.63;;;5.12;47.43
30873;BME280;17579;42.690;2.586;2023-02-11T05:36:38;98830.16;;;5.11;47.35
30873;BME280;17579;42.690;2.586;2023-02-11T05:39:04;98832.09;;;5.08;47.74
30873;BME280;17579;42.690;2.586;2023-02-11T05:41:29;98833.09;;;5.05;47.35
30873;BME280;17579;42.690;2.586;2023-02-11T05:43:55;98830.63;;;5.02;47.72
30873;BME280;17579;42.690;2.586;2023-02-11T05:46:23;98825.50;;;4.99;47.85
30873;BME280;17579;42.690;2.586;2023-02-11T05:48:51;98831.81;;;4.95;47.62
30873;BME280;17579;42.690;2.586;2023-02-11T05:51:16;98828.41;;;4.93;47.87
30873;BME280;17579;42.690;2.586;2023-02-11T05:53:42;98824.94;;;4.92;47.92
30873;BME280;17579;42.690;2.586;2023-02-11T05:56:07;98827.72;;;4.89;47.99
30873;BME280;17579;42.690;2.586;2023-02-11T05:58:34;98830.41;;;4.88;48.24
30873;BME280;17579;42.690;2.586;2023-02-11T06:01:00;98834.81;;;4.87;48.17
30873;BME280;17579;42.690;2.586;2023-02-11T06:03:28;98835.66;;;4.88;48.53
30873;BME280;17579;42.690;2.586;2023-02-11T06:05:53;98833.09;;;4.86;48.28
30873;BME280;17579;42.690;2.586;2023-02-11T06:08:19;98827.84;;;4.86;48.13
30873;BME280;17579;42.690;2.586;2023-02-11T06:10:45;98825.31;;;4.84;48.20
30873;BME280;17579;42.690;2.586;2023-02-11T06:13:10;98831.47;;;4.83;48.49
30873;BME280;17579;42.690;2.586;2023-02-11T06:15:36;98829.75;;;4.82;48.38
30873;BME280;17579;42.690;2.586;2023-02-11T06:18:02;98830.63;;;4.83;48.77
30873;BME280;17579;42.690;2.586;2023-02-11T06:20:27;98833.25;;;4.83;48.76
30873;BME280;17579;42.690;2.586;2023-02-11T06:22:54;98831.47;;;4.83;48.75
30873;BME280;17579;42.690;2.586;2023-02-11T06:25:19;98828.00;;;4.83;48.91
30873;BME280;17579;42.690;2.586;2023-02-11T06:27:45;98826.16;;;4.85;48.78
30873;BME280;17579;42.690;2.586;2023-02-11T06:30:11;98831.47;;;4.83;48.96
30873;BME280;17579;42.690;2.586;2023-02-11T06:32:36;98823.66;;;4.82;48.98
30873;BME280;17579;42.690;2.586;2023-02-11T06:35:02;98821.03;;;4.82;48.85
30873;BME280;17579;42.690;2.586;2023-02-11T06:37:27;98818.72;;;4.76;48.57
30873;BME280;17579;42.690;2.586;2023-02-11T06:39:53;98821.53;;;4.71;48.47
30873;BME280;17579;42.690;2.586;2023-02-11T06:42:19;98820.09;;;4.64;48.86
30873;BME280;17579;42.690;2.586;2023-02-11T06:44:44;98818.50;;;4.61;48.82
30873;BME280;17579;42.690;2.586;2023-02-11T06:47:10;98817.63;;;4.61;48.82
30873;BME280;17579;42.690;2.586;2023-02-11T06:49:36;98815.97;;;4.58;48.58
30873;BME280;17579;42.690;2.586;2023-02-11T06:52:01;98823.97;;;4.55;48.65
30873;BME280;17579;42.690;2.586;2023-02-11T06:54:27;98822.47;;;4.49;48.66
30873;BME280;17579;42.690;2.586;2023-02-11T06:56:53;98820.94;;;4.45;48.58
30873;BME280;17579;42.690;2.586;2023-02-11T06:59:19;98827.22;;;4.41;48.60
30873;BME280;17579;42.690;2.586;2023-02-11T07:01:45;98819.44;;;4.40;49.04
30873;BME280;17579;42.690;2.586;2023-02-11T07:04:11;98827.22;;;4.41;49.02
30873;BME280;17579;42.690;2.586;2023-02-11T07:06:39;98831.47;;;4.44;48.80
30873;BME280;17579;42.690;2.586;2023-02-11T07:09:05;98831.44;;;4.45;49.01
30873;BME280;17579;42.690;2.586;2023-02-11T07:11:31;98840.06;;;4.47;49.08
30873;BME280;17579;42.690;2.586;2023-02-11T07:13:59;98829.50;;;4.49;49.10
30873;BME280;17579;42.690;2.586;2023-02-11T07:16:25;98830.94;;;4.56;49.21
30873;BME280;17579;42.690;2.586;2023-02-11T07:18:51;98829.03;;;4.60;49.40
30873;BME280;17579;42.690;2.586;2023-02-11T07:21:19;98833.19;;;4.64;49.19
30873;BME280;17579;42.690;2.586;2023-02-11T07:23:46;98826.97;;;4.66;49.22
30873;BME280;17579;42.690;2.586;2023-02-11T07:26:15;98840.00;;;4.68;49.29
30873;BME280;17579;42.690;2.586;2023-02-11T07:28:41;98837.31;;;4.69;49.21
30873;BME280;17579;42.690;2.586;2023-02-11T07:31:10;98837.22;;;4.73;49.52
30873;BME280;17579;42.690;2.586;2023-02-11T07:33:36;98836.03;;;4.78;49.39
30873;BME280;17579;42.690;2.586;2023-02-11T07:36:04;98831.53;;;4.82;49.61
30873;BME280;17579;42.690;2.586;2023-02-11T07:38:31;98828.69;;;4.86;49.79
30873;BME280;17579;42.690;2.586;2023-02-11T07:40:58;98834.59;;;4.92;49.97
30873;BME280;17579;42.690;2.586;2023-02-11T07:43:24;98832.50;;;4.98;49.86
30873;BME280;17579;42.690;2.586;2023-02-11T07:45:52;98831.44;;;5.02;50.14
30873;BME280;17579;42.690;2.586;2023-02-11T07:48:17;98834.78;;;5.06;50.27
30873;BME280;17579;42.690;2.586;2023-02-11T07:50:43;98837.19;;;5.11;50.38
30873;BME280;17579;42.690;2.586;2023-02-11T07:53:11;98837.28;;;5.09;50.48
30873;BME280;17579;42.690;2.586;2023-02-11T07:55:36;98838.84;;;5.13;50.83
30873;BME280;17579;42.690;2.586;2023-02-11T07:58:02;98836.97;;;5.15;50.62
30873;BME280;17579;42.690;2.586;2023-02-11T08:00:27;98842.88;;;5.20;50.76
30873;BME280;17579;42.690;2.586;2023-02-11T08:02:53;98850.50;;;5.25;51.09
30873;BME280;17579;42.690;2.586;2023-02-11T08:05:20;98850.50;;;5.25;51.30
30873;BME280;17579;42.690;2.586;2023-02-11T08:07:46;98844.13;;;5.31;51.27
30873;BME280;17579;42.690;2.586;2023-02-11T08:10:14;98853.63;;;5.33;51.47
30873;BME280;17579;42.690;2.586;2023-02-11T08:12:40;98854.25;;;5.38;50.80
30873;BME280;17579;42.690;2.586;2023-02-11T08:15:06;98856.53;;;5.46;50.61
30873;BME280;17579;42.690;2.586;2023-02-11T08:17:34;98847.44;;;5.53;50.79
30873;BME280;17579;42.690;2.586;2023-02-11T08:20:00;98847.13;;;5.60;50.83
30873;BME280;17579;42.690;2.586;2023-02-11T08:22:26;98849.38;;;5.67;50.84
30873;BME280;17579;42.690;2.586;2023-02-11T08:24:51;98842.97;;;5.73;51.00
30873;BME280;17579;42.690;2.586;2023-02-11T08:27:17;98850.66;;;5.78;51.11
30873;BME280;17579;42.690;2.586;2023-02-11T08:29:44;98850.41;;;5.82;51.15
30873;BME280;17579;42.690;2.586;2023-02-11T08:32:10;98847.47;;;5.88;51.50
30873;BME280;17579;42.690;2.586;2023-02-11T08:34:36;98849.72;;;5.96;51.18
30873;BME280;17579;42.690;2.586;2023-02-11T08:37:02;98853.00;;;6.01;50.97
30873;BME280;17579;42.690;2.586;2023-02-11T08:39:27;98857.09;;;6.07;51.29
30873;BME280;17579;42.690;2.586;2023-02-11T08:41:53;98849.13;;;6.09;51.23
30873;BME280;17579;42.690;2.586;2023-02-11T08:44:21;98848.69;;;6.18;51.43
30873;BME280;17579;42.690;2.586;2023-02-11T08:46:47;98856.31;;;6.22;51.33
30873;BME280;17579;42.690;2.586;2023-02-11T08:49:13;98852.53;;;6.28;51.27
30873;BME280;17579;42.690;2.586;2023-02-11T08:51:39;98859.34;;;6.32;51.33
30873;BME280;17579;42.690;2.586;2023-02-11T08:54:05;98850.34;;;6.36;51.39
30873;BME280;17579;42.690;2.586;2023-02-11T08:56:33;98849.25;;;6.40;51.54
30873;BME280;17579;42.690;2.586;2023-02-11T08:58:59;98855.28;;;6.43;51.67
30873;BME280;17579;42.690;2.586;2023-02-11T09:01:28;98860.47;;;6.44;51.40
30873;BME280;17579;42.690;2.586;2023-02-11T09:03:54;98863.78;;;6.48;51.36
30873;BME280;17579;42.690;2.586;2023-02-11T09:06:20;98850.50;;;6.51;51.83
30873;BME280;17579;42.690;2.586;2023-02-11T09:08:49;98856.59;;;6.51;51.90
30873;BME280;17579;42.690;2.586;2023-02-11T09:11:16;98853.63;;;6.57;51.58
30873;BME280;17579;42.690;2.586;2023-02-11T09:13:43;98857.72;;;6.63;51.79
30873;BME280;17579;42.690;2.586;2023-02-11T09:16:16;98859.50;;;6.63;51.84
30873;BME280;17579;42.690;2.586;2023-02-11T09:18:43;98864.19;;;6.73;51.64
30873;BME280;17579;42.690;2.586;2023-02-11T09:21:10;98867.53;;;6.77;51.54
30873;BME280;17579;42.690;2.586;2023-02-11T09:23:36;98869.06;;;6.81;51.32
30873;BME280;17579;42.690;2.586;2023-02-11T09:26:05;98866.25;;;6.84;51.36
30873;BME280;17579;42.690;2.586;2023-02-11T09:28:31;98867.88;;;6.87;52.00
30873;BME280;17579;42.690;2.586;2023-02-11T09:30:56;98870.00;;;6.96;52.13
30873;BME280;17579;42.690;2.586;2023-02-11T09:33:22;98873.25;;;7.01;51.95
30873;BME280;17579;42.690;2.586;2023-02-11T09:35:48;98868.56;;;7.06;52.00
30873;BME280;17579;42.690;2.586;2023-02-11T09:38:13;98873.00;;;7.06;52.29
30873;BME280;17579;42.690;2.586;2023-02-11T09:40:41;98870.28;;;7.07;52.48
30873;BME280;17579;42.690;2.586;2023-02-11T09:43:16;98880.47;;;7.14;52.50
30873;BME280;17579;42.690;2.586;2023-02-11T09:45:43;98878.53;;;7.17;52.81
30873;BME280;17579;42.690;2.586;2023-02-11T09:48:14;98884.47;;;7.21;52.54
30873;BME280;17579;42.690;2.586;2023-02-11T09:50:45;98881.66;;;7.24;53.03
30873;BME280;17579;42.690;2.586;2023-02-11T09:53:14;98883.81;;;7.33;53.56
30873;BME280;17579;42.690;2.586;2023-02-11T09:55:45;98882.53;;;7.40;53.99
30873;BME280;17579;42.690;2.586;2023-02-11T09:58:13;98883.88;;;7.48;54.13
30873;BME280;17579;42.690;2.586;2023-02-11T10:00:45;98888.22;;;7.49;54.16
30873;BME280;17579;42.690;2.586;2023-02-11T10:06:11;98891.03;;;7.61;53.76
30873;BME280;17579;42.690;2.586;2023-02-11T10:16:47;98891.56;;;7.83;55.02
30873;BME280;17579;42.690;2.586;2023-02-11T10:21:59;98891.16;;;7.90;55.14
30873;BME280;17579;42.690;2.586;2023-02-11T10:24:29;98900.13;;;8.02;55.57
30873;BME280;17579;42.690;2.586;2023-02-11T10:26:55;98902.41;;;8.08;56.27
30873;BME280;17579;42.690;2.586;2023-02-11T10:29:32;98901.09;;;8.15;56.30
30873;BME280;17579;42.690;2.586;2023-02-11T10:32:01;98910.16;;;8.26;56.34
30873;BME280;17579;42.690;2.586;2023-02-11T10:34:31;98900.13;;;8.32;56.41
30873;BME280;17579;42.690;2.586;2023-02-11T10:36:57;98901.38;;;8.41;56.57
30873;BME280;17579;42.690;2.586;2023-02-11T10:39:25;98902.22;;;8.42;56.48
30873;BME280;17579;42.690;2.586;2023-02-11T10:41:56;98901.81;;;8.49;56.39
30873;BME280;17579;42.690;2.586;2023-02-11T10:44:27;98903.41;;;8.52;55.87
30873;BME280;17579;42.690;2.586;2023-02-11T10:46:55;98895.78;;;8.62;56.38
30873;BME280;17579;42.690;2.586;2023-02-11T10:51:49;98906.09;;;8.81;56.95
30873;BME280;17579;42.690;2.586;2023-02-11T10:54:17;98902.97;;;8.89;56.19
30873;BME280;17579;42.690;2.586;2023-02-11T10:56:47;98896.00;;;8.88;56.33
30873;BME280;17579;42.690;2.586;2023-02-11T10:59:33;98899.94;;;8.95;56.06
30873;BME280;17579;42.690;2.586;2023-02-11T11:02:21;98893.25;;;8.89;55.78
30873;BME280;17579;42.690;2.586;2023-02-11T11:04:50;98895.25;;;9.00;54.79
30873;BME280;17579;42.690;2.586;2023-02-11T11:07:23;98892.31;;;9.05;55.48
30873;BME280;17579;42.690;2.586;2023-02-11T11:10:03;98889.31;;;9.11;54.89
30873;BME280;17579;42.690;2.586;2023-02-11T11:12:47;98891.84;;;9.12;54.90
30873;BME280;17579;42.690;2.586;2023-02-11T11:15:19;98887.50;;;9.26;55.30
30873;BME280;17579;42.690;2.586;2023-02-11T11:17:47;98877.78;;;9.26;55.41
30873;BME280;17579;42.690;2.586;2023-02-11T11:20:18;98879.28;;;9.30;55.12
30873;BME280;17579;42.690;2.586;2023-02-11T11:22:49;98868.91;;;9.27;55.18
30873;BME280;17579;42.690;2.586;2023-02-11T11:27:48;98863.25;;;9.33;55.15
30873;BME280;17579;42.690;2.586;2023-02-11T11:30:15;98864.84;;;9.36;55.19
30873;BME280;17579;42.690;2.586;2023-02-11T11:32:41;98867.28;;;9.39;55.11
30873;BME280;17579;42.690;2.586;2023-02-11T11:35:21;98855.03;;;9.38;54.56
30873;BME280;17579;42.690;2.586;2023-02-11T11:37:55;98854.75;;;9.43;55.34
30873;BME280;17579;42.690;2.586;2023-02-11T11:40:26;98853.03;;;9.42;54.88
30873;BME280;17579;42.690;2.586;2023-02-11T11:45:28;98852.69;;;9.19;55.02
30873;BME280;17579;42.690;2.586;2023-02-11T11:48:00;98832.59;;;9.31;55.81
30873;BME280;17579;42.690;2.586;2023-02-11T11:50:34;98848.44;;;9.45;55.24
30873;BME280;17579;42.690;2.586;2023-02-11T11:55:31;98843.47;;;9.53;54.76
30873;BME280;17579;42.690;2.586;2023-02-11T11:57:58;98849.00;;;9.63;54.69
30873;BME280;17579;42.690;2.586;2023-02-11T12:03:36;98838.50;;;9.76;
30873;BME280;17579;42.690;2.586;2023-02-11T12:06:33;98830.56;;;9.76;54.78
30873;BME280;17579;42.690;2.586;2023-02-11T12:11:54;98831.63;;;9.86;54.70
30873;BME280;17579;42.690;2.586;2023-02-11T12:14:44;98829.44;;;9.93;54.63
30873;BME280;17579;42.690;2.586;2023-02-11T12:17:25;98823.00;;;9.97;54.14
30873;BME280;17579;42.690;2.586;2023-02-11T12:25:21;98814.78;;;10.15;53.90
30873;BME280;17579;42.690;2.586;2023-02-11T12:27:58;98806.53;;;10.19;53.37
30873;BME280;17579;42.690;2.586;2023-02-11T12:30:32;98804.84;;;10.18;53.35
30873;BME280;17579;42.690;2.586;2023-02-11T12:35:41;98799.97;;;10.25;53.93
30873;BME280;17579;42.690;2.586;2023-02-11T12:38:19;98800.75;;;10.40;53.12
30873;BME280;17579;42.690;2.586;2023-02-11T12:40:55;98806.03;;;10.27;52.66
30873;BME280;17579;42.690;2.586;2023-02-11T12:52:00;98796.06;;;10.31;53.44
30873;BME280;17579;42.690;2.586;2023-02-11T12:54:33;98795.69;;;10.37;52.89
30873;BME280;17579;42.690;2.586;2023-02-11T12:57:06;98792.88;;;10.26;52.52
30873;BME280;17579;42.690;2.586;2023-02-11T12:59:39;98786.44;;;10.30;52.88
30873;BME280;17579;42.690;2.586;2023-02-11T13:02:17;98781.47;;;10.12;52.76
30873;BME280;17579;42.690;2.586;2023-02-11T13:04:51;98770.66;;;10.02;53.55
30873;BME280;17579;42.690;2.586;2023-02-11T13:07:24;98766.25;;;10.03;53.49
30873;BME280;17579;42.690;2.586;2023-02-11T13:09:57;98767.91;;;10.17;53.52
30873;BME280;17579;42.690;2.586;2023-02-11T13:12:28;98764.34;;;10.31;53.97
30873;BME280;17579;42.690;2.586;2023-02-11T13:15:02;98765.84;;;10.35;53.63
30873;BME280;17579;42.690;2.586;2023-02-11T13:20:31;98758.75;;;10.35;53.13
30873;BME280;17579;42.690;2.586;2023-02-11T13:25:37;98742.47;;;10.42;52.97
30873;BME280;17579;42.690;2.586;2023-02-11T13:28:29;98749.16;;;10.34;53.22
30873;BME280;17579;42.690;2.586;2023-02-11T13:31:01;98738.75;;;10.44;53.37
30873;BME280;17579;42.690;2.586;2023-02-11T13:38:40;98739.50;;;10.59;53.20
30873;BME280;17579;42.690;2.586;2023-02-11T13:41:18;98723.06;;;10.67;53.01
30873;BME280;17579;42.690;2.586;2023-02-11T13:43:57;98722.81;;;10.70;52.83
30873;BME280;17579;42.690;2.586;2023-02-11T13:46:24;98729.47;;;10.75;52.15
30873;BME280;17579;42.690;2.586;2023-02-11T13:48:52;98718.50;;;10.69;52.98
30873;BME280;17579;42.690;2.586;2023-02-11T13:53:51;98724.09;;;10.77;52.38
30873;BME280;17579;42.690;2.586;2023-02-11T13:58:46;98715.22;;;10.65;52.24
30873;BME280;17579;42.690;2.586;2023-02-11T14:06:27;98716.06;;;10.66;52.38
30873;BME280;17579;42.690;2.586;2023-02-11T14:11:50;98704.75;;;10.64;53.00
30873;BME280;17579;42.690;2.586;2023-02-11T14:22:01;98701.38;;;10.62;53.20
30873;BME280;17579;42.690;2.586;2023-02-11T14:24:50;98691.75;;;10.61;52.82
30873;BME280;17579;42.690;2.586;2023-02-11T14:27:34;98684.72;;;10.72;53.38
30873;BME280;17579;42.690;2.586;2023-02-11T14:30:19;98684.44;;;10.88;52.36
30873;BME280;17579;42.690;2.586;2023-02-11T14:33:01;98684.34;;;10.90;52.45
30873;BME280;17579;42.690;2.586;2023-02-11T14:35:40;98691.63;;;10.99;51.77
30873;BME280;17579;42.690;2.586;2023-02-11T14:41:00;98693.03;;;11.16;51.93
30873;BME280;17579;42.690;2.586;2023-02-11T14:43:35;98690.41;;;11.27;51.66
30873;BME280;17579;42.690;2.586;2023-02-11T14:46:03;98686.56;;;11.32;51.18
30873;BME280;17579;42.690;2.586;2023-02-11T14:48:33;98685.97;;;11.28;51.37
30873;BME280;17579;42.690;2.586;2023-02-11T14:51:05;98688.34;;;11.20;50.94
30873;BME280;17579;42.690;2.586;2023-02-11T14:53:32;98685.09;;;11.16;51.52
30873;BME280;17579;42.690;2.586;2023-02-11T14:55:58;98690.03;;;11.21;51.37
30873;BME280;17579;42.690;2.586;2023-02-11T14:58:27;98690.88;;;11.21;51.47
30873;BME280;17579;42.690;2.586;2023-02-11T15:05:53;98696.69;;;11.02;51.51
30873;BME280;17579;42.690;2.586;2023-02-11T15:08:19;98699.44;;;11.01;51.23
30873;BME280;17579;42.690;2.586;2023-02-11T15:10:46;98696.50;;;10.92;51.42